sensor_id;sensor_type;location;lat;lon;timestamp;pressure;altitude;pressure_sealevel;temperature;humidity
69624;BME280;56843;52.020;5.670;2023-01-30T00:00:06;101523.75;;;9.45;60.89
69624;BME280;56843;52.020;5.670;2023-01-30T00:01:37;101518.13;;;9.46;60.88
69624;BME280;56843;52.020;5.670;2023-01-30T00:03:07;101518.13;;;9.46;61.00
69624;BME280;56843;52.020;5.670;2023-01-30T00:04:38;101519.69;;;9.47;60.80
69624;BME280;56843;52.020;5.670;2023-01-30T00:06:09;101513.59;;;9.47;60.87
69624;BME280;56843;52.020;5.670;2023-01-30T00:07:39;101504.47;;;9.48;61.00
69624;BME280;56843;52.020;5.670;2023-01-30T00:09:12;101501.81;;;9.48;61.00
69624;BME280;56843;52.020;5.670;2023-01-30T00:10:44;101494.63;;;9.48;61.15
69624;BME280;56843;52.020;5.670;2023-01-30T00:12:15;101494.63;;;9.48;61.21
69624;BME280;56843;52.020;5.670;2023-01-30T00:13:47;101505.28;;;9.48;61.14
69624;BME280;56843;52.020;5.670;2023-01-30T00:15:18;101515.63;;;9.50;61.14
69624;BME280;56843;52.020;5.670;2023-01-30T00:16:48;101502.31;;;9.50;61.28
69624;BME280;56843;52.020;5.670;2023-01-30T00:18:19;101505.78;;;9.50;61.45
69624;BME280;56843;52.020;5.670;2023-01-30T00:19:49;101505.78;;;9.50;61.39
69624;BME280;56843;52.020;5.670;2023-01-30T00:21:20;101505.47;;;9.52;61.39
69624;BME280;56843;52.020;5.670;2023-01-30T00:22:50;101510.78;;;9.52;61.30
69624;BME280;56843;52.020;5.670;2023-01-30T00:24:21;101497.47;;;9.52;61.56
69624;BME280;56843;52.020;5.670;2023-01-30T00:25:51;101496.69;;;9.51;61.49
69624;BME280;56843;52.020;5.670;2023-01-30T00:27:22;101483.84;;;9.53;61.46
69624;BME280;56843;52.020;5.670;2023-01-30T00:28:53;101488.41;;;9.53;61.69
69624;BME280;56843;52.020;5.670;2023-01-30T00:30:23;101492.94;;;9.52;61.60
69624;BME280;56843;52.020;5.670;2023-01-30T00:31:54;101482.25;;;9.52;61.54
69624;BME280;56843;52.020;5.670;2023-01-30T00:33:26;101483.06;;;9.53;61.63
69624;BME280;56843;52.020;5.670;2023-01-30T00:34:56;101471.31;;;9.54;61.72
69624;BME280;56843;52.020;5.670;2023-01-30T00:36:27;101475.06;;;9.53;61.88
69624;BME280;56843;52.020;5.670;2023-01-30T00:37:58;101474.75;;;9.54;61.87
69624;BME280;56843;52.020;5.670;2023-01-30T00:39:28;101462.53;;;9.53;61.86
69624;BME280;56843;52.020;5.670;2023-01-30T00:40:59;101458.75;;;9.54;62.01
69624;BME280;56843;52.020;5.670;2023-01-30T00:42:29;101453.63;;;9.58;62.18
69624;BME280;56843;52.020;5.670;2023-01-30T00:44:18;101457.28;;;9.62;62.63
69624;BME280;56843;52.020;5.670;2023-01-30T00:46:36;101444.59;;;9.68;62.16
69624;BME280;56843;52.020;5.670;2023-01-30T00:48:25;101447.88;;;9.65;62.30
69624;BME280;56843;52.020;5.670;2023-01-30T00:49:56;101440.84;;;9.69;62.17
69624;BME280;56843;52.020;5.670;2023-01-30T00:51:27;101437.88;;;9.70;62.18
69624;BME280;56843;52.020;5.670;2023-01-30T00:52:57;101433.66;;;9.69;62.30
69624;BME280;56843;52.020;5.670;2023-01-30T00:54:28;101429.09;;;9.70;62.29
69624;BME280;56843;52.020;5.670;2023-01-30T00:55:58;101426.41;;;9.70;62.24
69624;BME280;56843;52.020;5.670;2023-01-30T00:57:29;101431.00;;;9.69;62.12
69624;BME280;56843;52.020;5.670;2023-01-30T00:59:00;101424.84;;;9.69;62.43
69624;BME280;56843;52.020;5.670;2023-01-30T01:00:31;101424.84;;;9.69;62.45
69624;BME280;56843;52.020;5.670;2023-01-30T01:02:01;101429.09;;;9.70;62.32
69624;BME280;56843;52.020;5.670;2023-01-30T01:03:32;101424.84;;;9.69;62.24
69624;BME280;56843;52.020;5.670;2023-01-30T01:05:04;101430.19;;;9.69;62.56
69624;BME280;56843;52.020;5.670;2023-01-30T01:06:35;101431.75;;;9.70;62.43
69624;BME280;56843;52.020;5.670;2023-01-30T01:08:06;101434.41;;;9.70;62.34
69624;BME280;56843;52.020;5.670;2023-01-30T01:09:37;101425.66;;;9.69;62.60
69624;BME280;56843;52.020;5.670;2023-01-30T01:11:08;101433.66;;;9.69;62.69
69624;BME280;56843;52.020;5.670;2023-01-30T01:12:38;101425.66;;;9.69;62.51
69624;BME280;56843;52.020;5.670;2023-01-30T01:14:09;101424.84;;;9.69;62.63
69624;BME280;56843;52.020;5.670;2023-01-30T01:15:40;101423.25;;;9.68;62.65
69624;BME280;56843;52.020;5.670;2023-01-30T01:17:10;101432.84;;;9.69;62.80
69624;BME280;56843;52.020;5.670;2023-01-30T01:18:41;101427.53;;;9.69;62.69
69624;BME280;56843;52.020;5.670;2023-01-30T01:20:13;101408.06;;;9.68;62.98
69624;BME280;56843;52.020;5.670;2023-01-30T01:21:44;101414.19;;;9.69;62.93
69624;BME280;56843;52.020;5.670;2023-01-30T01:23:14;101411.22;;;9.70;62.99
69624;BME280;56843;52.020;5.670;2023-01-30T01:24:45;101412.00;;;9.71;62.95
69624;BME280;56843;52.020;5.670;2023-01-30T01:26:16;101415.47;;;9.71;63.24
69624;BME280;56843;52.020;5.670;2023-01-30T01:27:47;101397.59;;;9.72;63.25
69624;BME280;56843;52.020;5.670;2023-01-30T01:29:20;101392.25;;;9.72;63.41
69624;BME280;56843;52.020;5.670;2023-01-30T01:30:50;101390.66;;;9.71;63.36
69624;BME280;56843;52.020;5.670;2023-01-30T01:32:21;101386.13;;;9.71;63.60
69624;BME280;56843;52.020;5.670;2023-01-30T01:33:52;101387.69;;;9.72;63.59
69624;BME280;56843;52.020;5.670;2023-01-30T01:35:22;101379.41;;;9.74;63.77
69624;BME280;56843;52.020;5.670;2023-01-30T01:36:54;101363.41;;;9.74;63.80
69624;BME280;56843;52.020;5.670;2023-01-30T01:38:24;101371.09;;;9.75;63.71
69624;BME280;56843;52.020;5.670;2023-01-30T01:39:55;101369.22;;;9.76;63.96
69624;BME280;56843;52.020;5.670;2023-01-30T01:41:44;101372.97;;;9.75;64.17
69624;BME280;56843;52.020;5.670;2023-01-30T01:43:20;101371.88;;;9.76;63.93
69624;BME280;56843;52.020;5.670;2023-01-30T01:46:49;101362.78;;;9.77;64.22
69624;BME280;56843;52.020;5.670;2023-01-30T01:48:25;101359.31;;;9.76;64.27
69624;BME280;56843;52.020;5.670;2023-01-30T01:49:57;101350.56;;;9.76;64.19
69624;BME280;56843;52.020;5.670;2023-01-30T01:51:31;101345.22;;;9.76;64.18
69624;BME280;56843;52.020;5.670;2023-01-30T01:53:03;101338.78;;;9.77;64.35
69624;BME280;56843;52.020;5.670;2023-01-30T01:54:44;101356.38;;;9.78;64.57
69624;BME280;56843;52.020;5.670;2023-01-30T01:56:16;101349.16;;;9.78;64.55
69624;BME280;56843;52.020;5.670;2023-01-30T01:57:52;101342.72;;;9.79;64.62
69624;BME280;56843;52.020;5.670;2023-01-30T01:59:39;101344.00;;;9.82;64.50
69624;BME280;56843;52.020;5.670;2023-01-30T02:03:59;101352.13;;;9.77;64.74
69624;BME280;56843;52.020;5.670;2023-01-30T02:05:35;101347.25;;;9.79;64.47
69624;BME280;56843;52.020;5.670;2023-01-30T02:07:07;101351.53;;;9.80;64.69
69624;BME280;56843;52.020;5.670;2023-01-30T02:08:47;101352.47;;;9.84;64.56
69624;BME280;56843;52.020;5.670;2023-01-30T02:10:26;101346.66;;;9.82;64.56
69624;BME280;56843;52.020;5.670;2023-01-30T02:12:01;101352.47;;;9.84;64.70
69624;BME280;56843;52.020;5.670;2023-01-30T02:13:35;101326.59;;;9.84;64.69
69624;BME280;56843;52.020;5.670;2023-01-30T02:15:07;101338.84;;;9.85;64.60
69624;BME280;56843;52.020;5.670;2023-01-30T02:16:38;101355.31;;;9.87;64.84
69624;BME280;56843;52.020;5.670;2023-01-30T02:18:09;101344.66;;;9.87;65.01
69624;BME280;56843;52.020;5.670;2023-01-30T02:22:00;101334.78;;;9.88;64.88
69624;BME280;56843;52.020;5.670;2023-01-30T02:33:16;101355.31;;;9.87;65.20
69624;BME280;56843;52.020;5.670;2023-01-30T02:35:07;101362.56;;;9.87;65.29
69624;BME280;56843;52.020;5.670;2023-01-30T02:37:39;101348.41;;;9.86;65.21
69624;BME280;56843;52.020;5.670;2023-01-30T02:44:04;101339.81;;;9.89;65.36
69624;BME280;56843;52.020;5.670;2023-01-30T02:45:49;101331.03;;;9.89;65.14
69624;BME280;56843;52.020;5.670;2023-01-30T02:47:35;101324.91;;;9.88;65.31
69624;BME280;56843;52.020;5.670;2023-01-30T02:49:12;101324.09;;;9.88;65.41
69624;BME280;56843;52.020;5.670;2023-01-30T02:50:47;101319.56;;;9.88;65.11
69624;BME280;56843;52.020;5.670;2023-01-30T02:52:21;101325.69;;;9.89;65.32
69624;BME280;56843;52.020;5.670;2023-01-30T02:53:52;101319.56;;;9.88;65.57
69624;BME280;56843;52.020;5.670;2023-01-30T02:55:26;101326.47;;;9.89;65.38
69624;BME280;56843;52.020;5.670;2023-01-30T02:56:58;101321.91;;;9.90;65.69
69624;BME280;56843;52.020;5.670;2023-01-30T02:58:34;101321.63;;;9.91;65.51
69624;BME280;56843;52.020;5.670;2023-01-30T03:00:08;101320.84;;;9.91;65.77
69624;BME280;56843;52.020;5.670;2023-01-30T03:04:05;101320.34;;;9.89;65.57
69624;BME280;56843;52.020;5.670;2023-01-30T03:07:35;101316.09;;;9.88;65.66
69624;BME280;56843;52.020;5.670;2023-01-30T03:09:15;101316.09;;;9.88;65.96
69624;BME280;56843;52.020;5.670;2023-01-30T03:10:52;101310.75;;;9.88;65.68
69624;BME280;56843;52.020;5.670;2023-01-30T03:14:22;101310.75;;;9.88;66.15
69624;BME280;56843;52.020;5.670;2023-01-30T03:16:02;101306.22;;;9.88;65.96
69624;BME280;56843;52.020;5.670;2023-01-30T03:17:35;101303.56;;;9.88;65.93
69624;BME280;56843;52.020;5.670;2023-01-30T03:19:11;101301.69;;;9.89;66.13
69624;BME280;56843;52.020;5.670;2023-01-30T03:20:42;101305.91;;;9.90;66.08
69624;BME280;56843;52.020;5.670;2023-01-30T03:22:13;101301.38;;;9.90;66.40
69624;BME280;56843;52.020;5.670;2023-01-30T03:23:45;101298.69;;;9.90;66.01
69624;BME280;56843;52.020;5.670;2023-01-30T03:25:21;101294.94;;;9.91;66.09
69624;BME280;56843;52.020;5.670;2023-01-30T03:27:00;101293.03;;;9.92;66.14
69624;BME280;56843;52.020;5.670;2023-01-30T03:28:33;101286.16;;;9.91;66.44
69624;BME280;56843;52.020;5.670;2023-01-30T03:30:04;101284.28;;;9.91;66.43
69624;BME280;56843;52.020;5.670;2023-01-30T03:31:35;101291.16;;;9.92;66.13
69624;BME280;56843;52.020;5.670;2023-01-30T03:33:06;101283.16;;;9.92;66.37
69624;BME280;56843;52.020;5.670;2023-01-30T03:34:39;101283.97;;;9.93;66.31
69624;BME280;56843;52.020;5.670;2023-01-30T03:36:11;101291.97;;;9.93;66.33
69624;BME280;56843;52.020;5.670;2023-01-30T03:37:42;101286.63;;;9.93;66.46
69624;BME280;56843;52.020;5.670;2023-01-30T03:39:13;101286.63;;;9.93;66.58
69624;BME280;56843;52.020;5.670;2023-01-30T03:40:44;101291.66;;;9.94;66.33
69624;BME280;56843;52.020;5.670;2023-01-30T03:42:15;101285.56;;;9.94;66.29
69624;BME280;56843;52.020;5.670;2023-01-30T03:43:46;101292.13;;;9.96;66.60
69624;BME280;56843;52.020;5.670;2023-01-30T03:45:18;101276.75;;;9.93;66.73
69624;BME280;56843;52.020;5.670;2023-01-30T03:46:50;101290.56;;;9.95;66.75
69624;BME280;56843;52.020;5.670;2023-01-30T03:48:22;101287.09;;;9.95;66.53
69624;BME280;56843;52.020;5.670;2023-01-30T03:49:52;101285.22;;;9.95;66.59
69624;BME280;56843;52.020;5.670;2023-01-30T03:51:23;101282.56;;;9.95;66.66
69624;BME280;56843;52.020;5.670;2023-01-30T03:52:53;101289.47;;;9.96;66.71
69624;BME280;56843;52.020;5.670;2023-01-30T03:54:25;101288.69;;;9.96;66.60
69624;BME280;56843;52.020;5.670;2023-01-30T03:55:57;101286.03;;;9.96;66.59
69624;BME280;56843;52.020;5.670;2023-01-30T03:57:33;101286.31;;;9.94;66.94
69624;BME280;56843;52.020;5.670;2023-01-30T03:59:04;101275.34;;;9.96;66.85
69624;BME280;56843;52.020;5.670;2023-01-30T04:00:43;101287.59;;;9.97;66.75
69624;BME280;56843;52.020;5.670;2023-01-30T04:02:13;101288.38;;;9.97;66.84
69624;BME280;56843;52.020;5.670;2023-01-30T04:03:45;101283.84;;;9.98;66.79
69624;BME280;56843;52.020;5.670;2023-01-30T04:05:16;101289.94;;;9.98;66.65
69624;BME280;56843;52.020;5.670;2023-01-30T04:06:53;101291.53;;;9.99;66.70
69624;BME280;56843;52.020;5.670;2023-01-30T04:08:24;101283.53;;;9.99;66.70
69624;BME280;56843;52.020;5.670;2023-01-30T04:09:56;101275.53;;;9.99;66.93
69624;BME280;56843;52.020;5.670;2023-01-30T04:11:26;101273.94;;;9.98;66.93
69624;BME280;56843;52.020;5.670;2023-01-30T04:12:57;101293.41;;;9.99;67.02
69624;BME280;56843;52.020;5.670;2023-01-30T04:14:27;101289.94;;;9.98;66.89
69624;BME280;56843;52.020;5.670;2023-01-30T04:16:20;101297.19;;;9.98;66.93
69624;BME280;56843;52.020;5.670;2023-01-30T04:18:09;101297.47;;;9.96;66.97
69624;BME280;56843;52.020;5.670;2023-01-30T04:19:45;101293.72;;;9.97;66.91
69624;BME280;56843;52.020;5.670;2023-01-30T04:21:17;101286.50;;;9.98;67.04
69624;BME280;56843;52.020;5.670;2023-01-30T04:22:48;101295.00;;;10.00;66.77
69624;BME280;56843;52.020;5.670;2023-01-30T04:24:20;101281.66;;;10.00;66.94
69624;BME280;56843;52.020;5.670;2023-01-30T04:25:50;101274.72;;;9.99;66.99
69624;BME280;56843;52.020;5.670;2023-01-30T04:27:23;101288.84;;;9.99;66.79
69624;BME280;56843;52.020;5.670;2023-01-30T04:29:12;101282.72;;;9.99;66.94
69624;BME280;56843;52.020;5.670;2023-01-30T04:30:44;101281.16;;;9.98;66.92
69624;BME280;56843;52.020;5.670;2023-01-30T04:32:33;101285.41;;;9.99;66.41
69624;BME280;56843;52.020;5.670;2023-01-30T04:34:03;101286.19;;;9.99;67.00
69624;BME280;56843;52.020;5.670;2023-01-30T04:35:34;101287.00;;;10.00;67.07
69624;BME280;56843;52.020;5.670;2023-01-30T04:37:05;101289.66;;;10.00;66.97
69624;BME280;56843;52.020;5.670;2023-01-30T04:38:36;101289.34;;;10.01;66.78
69624;BME280;56843;52.020;5.670;2023-01-30T04:40:08;101293.59;;;10.02;66.85
69624;BME280;56843;52.020;5.670;2023-01-30T04:41:39;101290.94;;;10.02;66.96
69624;BME280;56843;52.020;5.670;2023-01-30T04:43:10;101284.78;;;10.02;66.88
69624;BME280;56843;52.020;5.670;2023-01-30T04:44:43;101303.16;;;10.03;67.14
69624;BME280;56843;52.020;5.670;2023-01-30T04:46:19;101298.13;;;10.02;67.17
69624;BME280;56843;52.020;5.670;2023-01-30T04:47:50;101286.66;;;10.01;66.93
69624;BME280;56843;52.020;5.670;2023-01-30T04:49:20;101285.59;;;10.02;67.13
69624;BME280;56843;52.020;5.670;2023-01-30T04:50:53;101284.47;;;10.03;67.06
69624;BME280;56843;52.020;5.670;2023-01-30T04:52:24;101297.03;;;10.03;67.04
69624;BME280;56843;52.020;5.670;2023-01-30T04:53:55;101302.38;;;10.03;67.13
69624;BME280;56843;52.020;5.670;2023-01-30T04:55:26;101304.75;;;10.04;66.96
69624;BME280;56843;52.020;5.670;2023-01-30T04:56:56;101296.75;;;10.04;66.98
69624;BME280;56843;52.020;5.670;2023-01-30T04:58:27;101300.97;;;10.05;67.20
69624;BME280;56843;52.020;5.670;2023-01-30T04:59:58;101298.63;;;10.04;66.99
69624;BME280;56843;52.020;5.670;2023-01-30T05:01:31;101291.88;;;10.06;66.91
69624;BME280;56843;52.020;5.670;2023-01-30T05:03:02;101291.09;;;10.06;67.23
69624;BME280;56843;52.020;5.670;2023-01-30T05:04:33;101284.69;;;10.07;67.21
69624;BME280;56843;52.020;5.670;2023-01-30T05:06:04;101293.44;;;10.07;67.26
69624;BME280;56843;52.020;5.670;2023-01-30T05:07:34;101290.00;;;10.07;67.13
69624;BME280;56843;52.020;5.670;2023-01-30T05:09:05;101290.50;;;10.09;67.16
69624;BME280;56843;52.020;5.670;2023-01-30T05:10:36;101296.91;;;10.08;67.16
69624;BME280;56843;52.020;5.670;2023-01-30T05:12:08;101295.81;;;10.09;67.01
69624;BME280;56843;52.020;5.670;2023-01-30T05:13:39;101283.25;;;10.09;66.92
69624;BME280;56843;52.020;5.670;2023-01-30T05:15:11;101293.63;;;10.11;66.96
69624;BME280;56843;52.020;5.670;2023-01-30T05:16:41;101288.31;;;10.11;66.95
69624;BME280;56843;52.020;5.670;2023-01-30T05:18:12;101295.19;;;10.12;67.08
69624;BME280;56843;52.020;5.670;2023-01-30T05:19:42;101289.84;;;10.12;66.90
69624;BME280;56843;52.020;5.670;2023-01-30T05:21:19;101293.31;;;10.12;67.06
69624;BME280;56843;52.020;5.670;2023-01-30T05:22:50;101290.66;;;10.12;67.00
69624;BME280;56843;52.020;5.670;2023-01-30T05:24:20;101301.00;;;10.14;66.85
69624;BME280;56843;52.020;5.670;2023-01-30T05:25:51;101291.94;;;10.15;66.67
69624;BME280;56843;52.020;5.670;2023-01-30T05:27:21;101293.50;;;10.16;66.84
69624;BME280;56843;52.020;5.670;2023-01-30T05:28:56;101287.88;;;10.17;66.87
69624;BME280;56843;52.020;5.670;2023-01-30T05:30:27;101282.84;;;10.16;66.99
69624;BME280;56843;52.020;5.670;2023-01-30T05:31:57;101289.75;;;10.17;66.83
69624;BME280;56843;52.020;5.670;2023-01-30T05:33:28;101288.69;;;10.18;66.76
69624;BME280;56843;52.020;5.670;2023-01-30T05:34:59;101295.56;;;10.19;66.41
69624;BME280;56843;52.020;5.670;2023-01-30T05:36:29;101302.50;;;10.20;66.55
69624;BME280;56843;52.020;5.670;2023-01-30T05:38:00;101300.59;;;10.20;66.44
69624;BME280;56843;52.020;5.670;2023-01-30T05:39:31;101309.41;;;10.21;66.25
69624;BME280;56843;52.020;5.670;2023-01-30T05:41:04;101311.78;;;10.22;66.39
69624;BME280;56843;52.020;5.670;2023-01-30T05:42:34;101300.31;;;10.22;66.31
69624;BME280;56843;52.020;5.670;2023-01-30T05:44:05;101317.88;;;10.23;66.28
69624;BME280;56843;52.020;5.670;2023-01-30T05:45:36;101309.59;;;10.24;66.10
69624;BME280;56843;52.020;5.670;2023-01-30T05:47:06;101304.25;;;10.24;66.13
69624;BME280;56843;52.020;5.670;2023-01-30T05:48:37;101319.16;;;10.25;65.94
69624;BME280;56843;52.020;5.670;2023-01-30T05:50:08;101324.22;;;10.27;65.80
69624;BME280;56843;52.020;5.670;2023-01-30T05:51:38;101329.84;;;10.25;65.80
69624;BME280;56843;52.020;5.670;2023-01-30T05:53:09;101327.16;;;10.25;65.76
69624;BME280;56843;52.020;5.670;2023-01-30T05:54:39;101327.97;;;10.26;65.62
69624;BME280;56843;52.020;5.670;2023-01-30T05:56:10;101329.56;;;10.27;65.45
69624;BME280;56843;52.020;5.670;2023-01-30T05:57:40;101311.16;;;10.25;65.39
69624;BME280;56843;52.020;5.670;2023-01-30T05:59:11;101313.81;;;10.25;65.37
69624;BME280;56843;52.020;5.670;2023-01-30T06:00:41;101310.34;;;10.25;65.24
69624;BME280;56843;52.020;5.670;2023-01-30T06:02:12;101324.22;;;10.27;65.22
69624;BME280;56843;52.020;5.670;2023-01-30T06:03:42;101324.22;;;10.27;65.13
69624;BME280;56843;52.020;5.670;2023-01-30T06:05:13;101318.88;;;10.27;65.21
69624;BME280;56843;52.020;5.670;2023-01-30T06:06:43;101315.09;;;10.28;64.93
69624;BME280;56843;52.020;5.670;2023-01-30T06:08:14;101310.88;;;10.27;64.97
69624;BME280;56843;52.020;5.670;2023-01-30T06:09:44;101306.75;;;10.29;64.66
69624;BME280;56843;52.020;5.670;2023-01-30T06:11:15;101303.00;;;10.30;64.52
69624;BME280;56843;52.020;5.670;2023-01-30T06:12:46;101301.44;;;10.29;65.15
69624;BME280;56843;52.020;5.670;2023-01-30T06:14:17;101304.56;;;10.31;64.71
69624;BME280;56843;52.020;5.670;2023-01-30T06:15:47;101311.19;;;10.34;64.81
69624;BME280;56843;52.020;5.670;2023-01-30T06:17:17;101302.09;;;10.35;64.76
69624;BME280;56843;52.020;5.670;2023-01-30T06:18:48;101317.97;;;10.40;65.18
69624;BME280;56843;52.020;5.670;2023-01-30T06:20:18;101333.38;;;10.43;65.15
69624;BME280;56843;52.020;5.670;2023-01-30T06:21:49;101329.31;;;10.46;65.21
69624;BME280;56843;52.020;5.670;2023-01-30T06:23:20;101335.59;;;10.50;65.33
69624;BME280;56843;52.020;5.670;2023-01-30T06:24:52;101323.03;;;10.50;64.96
69624;BME280;56843;52.020;5.670;2023-01-30T06:26:23;101322.44;;;10.53;65.10
69624;BME280;56843;52.020;5.670;2023-01-30T06:27:53;101334.84;;;10.58;65.37
69624;BME280;56843;52.020;5.670;2023-01-30T06:29:24;101340.66;;;10.60;65.21
69624;BME280;56843;52.020;5.670;2023-01-30T06:30:54;101339.28;;;10.62;65.03
69624;BME280;56843;52.020;5.670;2023-01-30T06:32:25;101337.56;;;10.66;65.39
69624;BME280;56843;52.020;5.670;2023-01-30T06:33:55;101335.34;;;10.68;65.01
69624;BME280;56843;52.020;5.670;2023-01-30T06:35:26;101330.50;;;10.70;65.11
69624;BME280;56843;52.020;5.670;2023-01-30T06:36:56;101341.66;;;10.72;65.16
69624;BME280;56843;52.020;5.670;2023-01-30T06:38:27;101339.78;;;10.73;65.28
69624;BME280;56843;52.020;5.670;2023-01-30T06:39:57;101350.94;;;10.75;65.16
69624;BME280;56843;52.020;5.670;2023-01-30T06:41:28;101337.25;;;10.76;64.87
69624;BME280;56843;52.020;5.670;2023-01-30T06:42:58;101340.41;;;10.78;64.99
69624;BME280;56843;52.020;5.670;2023-01-30T06:44:29;101337.44;;;10.80;64.80
69624;BME280;56843;52.020;5.670;2023-01-30T06:45:59;101339.78;;;10.81;64.89
69624;BME280;56843;52.020;5.670;2023-01-30T06:47:29;101346.69;;;10.82;64.89
69624;BME280;56843;52.020;5.670;2023-01-30T06:49:00;101331.47;;;10.83;64.93
69624;BME280;56843;52.020;5.670;2023-01-30T06:50:31;101332.25;;;10.83;64.42
69624;BME280;56843;52.020;5.670;2023-01-30T06:52:01;101331.94;;;10.85;64.55
69624;BME280;56843;52.020;5.670;2023-01-30T06:53:32;101341.53;;;10.86;64.38
69624;BME280;56843;52.020;5.670;2023-01-30T06:55:02;101337.75;;;10.87;64.80
69624;BME280;56843;52.020;5.670;2023-01-30T06:56:33;101336.66;;;10.88;64.36
69624;BME280;56843;52.020;5.670;2023-01-30T06:58:06;101338.25;;;10.89;64.31
69624;BME280;56843;52.020;5.670;2023-01-30T06:59:36;101345.63;;;10.92;64.23
69624;BME280;56843;52.020;5.670;2023-01-30T07:01:07;101347.22;;;10.93;64.51
69624;BME280;56843;52.020;5.670;2023-01-30T07:02:37;101364.00;;;10.93;64.52
69624;BME280;56843;52.020;5.670;2023-01-30T07:04:08;101362.59;;;10.96;64.18
69624;BME280;56843;52.020;5.670;2023-01-30T07:05:39;101355.06;;;10.98;64.22
69624;BME280;56843;52.020;5.670;2023-01-30T07:07:09;101363.88;;;10.98;64.33
69624;BME280;56843;52.020;5.670;2023-01-30T07:08:40;101362.78;;;10.99;64.28
69624;BME280;56843;52.020;5.670;2023-01-30T07:10:11;101367.81;;;11.01;63.98
69624;BME280;56843;52.020;5.670;2023-01-30T07:11:41;101372.56;;;11.04;64.21
69624;BME280;56843;52.020;5.670;2023-01-30T07:13:12;101377.56;;;11.05;64.08
69624;BME280;56843;52.020;5.670;2023-01-30T07:14:42;101377.25;;;11.07;64.04
69624;BME280;56843;52.020;5.670;2023-01-30T07:16:13;101381.50;;;11.08;64.10
69624;BME280;56843;52.020;5.670;2023-01-30T07:17:43;101391.09;;;11.09;63.84
69624;BME280;56843;52.020;5.670;2023-01-30T07:19:14;101384.97;;;11.08;63.98
69624;BME280;56843;52.020;5.670;2023-01-30T07:20:48;101390.81;;;11.11;63.89
69624;BME280;56843;52.020;5.670;2023-01-30T07:22:19;101390.81;;;11.11;63.83
69624;BME280;56843;52.020;5.670;2023-01-30T07:23:50;101393.94;;;11.13;63.85
69624;BME280;56843;52.020;5.670;2023-01-30T07:25:22;101397.41;;;11.13;63.82
69624;BME280;56843;52.020;5.670;2023-01-30T07:26:53;101394.75;;;11.13;63.75
69624;BME280;56843;52.020;5.670;2023-01-30T07:28:24;101380.25;;;11.14;63.78
69624;BME280;56843;52.020;5.670;2023-01-30T07:29:54;101394.91;;;11.17;63.61
69624;BME280;56843;52.020;5.670;2023-01-30T07:31:25;101397.88;;;11.15;63.59
69624;BME280;56843;52.020;5.670;2023-01-30T07:32:57;101385.78;;;11.18;63.63
69624;BME280;56843;52.020;5.670;2023-01-30T07:34:28;101386.56;;;11.18;63.61
69624;BME280;56843;52.020;5.670;2023-01-30T07:35:58;101394.56;;;11.18;63.48
69624;BME280;56843;52.020;5.670;2023-01-30T07:37:29;101396.16;;;11.19;63.35
69624;BME280;56843;52.020;5.670;2023-01-30T07:39:00;101396.97;;;11.20;63.61
69624;BME280;56843;52.020;5.670;2023-01-30T07:40:30;101400.72;;;11.19;63.36
69624;BME280;56843;52.020;5.670;2023-01-30T07:42:01;101396.16;;;11.19;63.29
69624;BME280;56843;52.020;5.670;2023-01-30T07:43:32;101399.63;;;11.20;63.48
69624;BME280;56843;52.020;5.670;2023-01-30T07:45:02;101401.19;;;11.21;63.24
69624;BME280;56843;52.020;5.670;2023-01-30T07:46:33;101403.06;;;11.20;63.25
69624;BME280;56843;52.020;5.670;2023-01-30T07:48:07;101411.09;;;11.20;63.18
69624;BME280;56843;52.020;5.670;2023-01-30T07:49:39;101396.16;;;11.19;63.41
69624;BME280;56843;52.020;5.670;2023-01-30T07:51:09;101398.84;;;11.19;63.13
69624;BME280;56843;52.020;5.670;2023-01-30T07:52:40;101400.72;;;11.19;63.29
69624;BME280;56843;52.020;5.670;2023-01-30T07:54:10;101400.25;;;11.17;63.15
69624;BME280;56843;52.020;5.670;2023-01-30T07:55:41;101403.38;;;11.19;63.15
69624;BME280;56843;52.020;5.670;2023-01-30T07:57:12;101394.28;;;11.20;63.14
69624;BME280;56843;52.020;5.670;2023-01-30T07:58:42;101398.84;;;11.19;63.11
69624;BME280;56843;52.020;5.670;2023-01-30T08:00:13;101409.53;;;11.19;62.94
69624;BME280;56843;52.020;5.670;2023-01-30T08:01:44;101407.66;;;11.20;62.69
69624;BME280;56843;52.020;5.670;2023-01-30T08:03:15;101400.72;;;11.19;62.94
69624;BME280;56843;52.020;5.670;2023-01-30T08:04:46;101399.16;;;11.18;62.69
69624;BME280;56843;52.020;5.670;2023-01-30T08:06:16;101405.28;;;11.18;62.72
69624;BME280;56843;52.020;5.670;2023-01-30T08:07:47;101410.31;;;11.20;62.88
69624;BME280;56843;52.020;5.670;2023-01-30T08:09:17;101415.19;;;11.18;62.92
69624;BME280;56843;52.020;5.670;2023-01-30T08:10:48;101419.44;;;11.19;62.70
69624;BME280;56843;52.020;5.670;2023-01-30T08:12:20;101424.78;;;11.19;62.87
69624;BME280;56843;52.020;5.670;2023-01-30T08:13:50;101429.34;;;11.18;62.68
69624;BME280;56843;52.020;5.670;2023-01-30T08:15:21;101419.75;;;11.17;62.73
69624;BME280;56843;52.020;5.670;2023-01-30T08:16:51;101414.41;;;11.17;62.53
69624;BME280;56843;52.020;5.670;2023-01-30T08:18:22;101408.25;;;11.17;62.41
69624;BME280;56843;52.020;5.670;2023-01-30T08:19:52;101416.28;;;11.17;62.37
69624;BME280;56843;52.020;5.670;2023-01-30T08:21:23;101417.06;;;11.17;62.27
69624;BME280;56843;52.020;5.670;2023-01-30T08:22:54;101409.84;;;11.18;62.32
69624;BME280;56843;52.020;5.670;2023-01-30T08:24:24;101411.72;;;11.17;62.44
69624;BME280;56843;52.020;5.670;2023-01-30T08:26:00;101422.09;;;11.19;62.35
69624;BME280;56843;52.020;5.670;2023-01-30T08:27:31;101417.06;;;11.17;62.20
69624;BME280;56843;52.020;5.670;2023-01-30T08:29:01;101440.03;;;11.18;62.39
69624;BME280;56843;52.020;5.670;2023-01-30T08:30:32;101443.81;;;11.17;62.33
69624;BME280;56843;52.020;5.670;2023-01-30T08:32:03;101438.16;;;11.19;62.21
69624;BME280;56843;52.020;5.670;2023-01-30T08:33:33;101453.88;;;11.20;62.06